createdAt,value
2018-04-15T00:01:24.110Z,67.90
2018-04-15T00:03:51.554Z,67.80
2018-04-15T00:06:19.344Z,65.90
2018-04-15T00:08:46.894Z,67.60
2018-04-15T00:11:14.354Z,67.30
2018-04-15T00:13:41.792Z,69.30
2018-04-15T00:16:09.268Z,68.80
2018-04-15T00:18:36.845Z,69.40
2018-04-15T00:21:04.857Z,69.40
2018-04-15T00:23:32.298Z,70.00
2018-04-15T00:25:59.758Z,69.90
2018-04-15T00:28:27.230Z,70.00
2018-04-15T00:30:54.769Z,69.90
2018-04-15T00:33:22.241Z,68.90
2018-04-15T00:35:49.708Z,68.80
2018-04-15T00:38:17.722Z,71.20
2018-04-15T00:40:45.960Z,69.50
2018-04-15T00:43:13.401Z,69.40
2018-04-15T00:45:40.865Z,70.50
2018-04-15T00:48:08.337Z,69.50
2018-04-15T00:50:35.837Z,69.60
2018-04-15T00:53:03.269Z,70.40
2018-04-15T00:55:30.727Z,70.30
2018-04-15T00:57:58.189Z,69.90
2018-04-15T01:00:25.653Z,70.30
2018-04-15T01:02:53.113Z,70.90
2018-04-15T01:05:20.549Z,71.00
2018-04-15T01:07:48.001Z,70.70
2018-04-15T01:10:15.435Z,70.70
2018-04-15T01:12:42.891Z,71.20
2018-04-15T01:15:10.349Z,71.30
2018-04-15T01:17:37.794Z,70.90
2018-04-15T01:20:05.245Z,70.20
2018-04-15T01:22:32.752Z,70.10
2018-04-15T01:25:00.278Z,70.70
2018-04-15T01:27:27.842Z,70.40
2018-04-15T01:29:55.298Z,71.20
2018-04-15T01:32:22.770Z,72.20
2018-04-15T01:34:50.217Z,72.20
2018-04-15T01:37:17.686Z,72.10
2018-04-15T01:39:45.152Z,71.20
2018-04-15T01:42:12.581Z,70.50
2018-04-15T01:44:40.045Z,72.10
2018-04-15T01:47:07.646Z,72.10
2018-04-15T01:49:35.209Z,70.70
2018-04-15T01:52:02.650Z,71.40
2018-04-15T01:54:30.112Z,69.50
2018-04-15T01:56:57.573Z,70.10
2018-04-15T01:59:25.001Z,72.00
2018-04-15T02:01:53.241Z,72.10
2018-04-15T02:04:20.833Z,72.00
2018-04-15T02:06:48.249Z,71.90
2018-04-15T02:09:15.685Z,70.80
2018-04-15T02:11:43.911Z,72.40
2018-04-15T02:14:11.354Z,72.30
2018-04-15T02:16:38.809Z,72.00
2018-04-15T02:19:06.245Z,71.80
2018-04-15T02:21:34.573Z,72.10
2018-04-15T02:24:02.039Z,72.00
2018-04-15T02:26:29.614Z,72.30
2018-04-15T02:28:57.074Z,72.90
2018-04-15T02:31:24.533Z,72.80
2018-04-15T02:33:51.978Z,74.00
2018-04-15T02:36:19.444Z,73.80
2018-04-15T02:38:46.872Z,72.80
2018-04-15T02:41:15.093Z,72.80
2018-04-15T02:43:42.573Z,72.70
2018-04-15T02:46:10.028Z,71.90
2018-04-15T02:48:37.481Z,71.60
2018-04-15T02:51:04.939Z,72.10
2018-04-15T02:53:32.394Z,73.30
2018-04-15T02:55:59.874Z,73.60
2018-04-15T02:58:27.330Z,73.30
2018-04-15T03:00:54.773Z,72.90
2018-04-15T03:03:22.233Z,72.70
2018-04-15T03:05:49.670Z,72.10
2018-04-15T03:08:18.077Z,72.90
2018-04-15T03:10:45.530Z,72.80
2018-04-15T03:13:13.025Z,73.60
2018-04-15T03:15:40.466Z,73.10
2018-04-15T03:18:07.934Z,73.00
2018-04-15T03:20:35.625Z,72.90
2018-04-15T03:23:03.084Z,72.90
2018-04-15T03:25:30.537Z,72.90
2018-04-15T03:27:57.980Z,73.20
2018-04-15T03:30:25.432Z,73.50
2018-04-15T03:32:52.869Z,73.80
2018-04-15T03:35:20.317Z,73.70
2018-04-15T03:37:48.548Z,73.90
2018-04-15T03:40:16.014Z,74.00
2018-04-15T03:42:43.493Z,72.00
2018-04-15T03:45:10.925Z,72.50
2018-04-15T03:47:38.384Z,72.90
2018-04-15T03:50:05.885Z,73.00
2018-04-15T03:52:33.312Z,73.70
2018-04-15T03:55:00.772Z,73.40
2018-04-15T03:57:28.271Z,73.80
2018-04-15T03:59:55.725Z,73.50
2018-04-15T04:02:23.193Z,73.90
2018-04-15T04:04:50.753Z,74.50
2018-04-15T04:07:18.221Z,74.50
2018-04-15T04:09:45.681Z,73.80
2018-04-15T04:12:13.112Z,74.10
2018-04-15T04:14:41.032Z,74.00
2018-04-15T04:17:08.482Z,74.20
2018-04-15T04:19:47.832Z,74.90
2018-04-15T04:22:27.262Z,74.90
2018-04-15T04:28:12.297Z,72.50
2018-04-15T04:30:39.767Z,73.90
2018-04-15T04:33:07.706Z,73.40
2018-04-15T04:35:35.896Z,74.90
2018-04-15T04:38:03.396Z,74.80
2018-04-15T04:40:30.836Z,74.50
2018-04-15T04:42:58.304Z,75.00
2018-04-15T04:45:25.783Z,74.30
2018-04-15T04:47:53.236Z,73.90
2018-04-15T04:50:20.676Z,74.80
2018-04-15T04:52:48.171Z,75.00
2018-04-15T04:55:15.617Z,75.10
2018-04-15T04:57:43.068Z,74.80
2018-04-15T05:00:10.777Z,74.40
2018-04-15T05:02:38.213Z,74.40
2018-04-15T05:05:05.650Z,73.80
2018-04-15T05:07:33.862Z,73.30
2018-04-15T05:10:01.331Z,73.30
2018-04-15T05:12:28.892Z,74.10
2018-04-15T05:14:56.360Z,73.50
2018-04-15T05:17:23.800Z,73.70
2018-04-15T05:19:51.361Z,74.50
2018-04-15T05:22:18.841Z,75.00
2018-04-15T05:24:46.303Z,75.10
2018-04-15T05:27:13.749Z,74.90
2018-04-15T05:29:41.453Z,73.30
2018-04-15T05:32:08.909Z,76.10
2018-04-15T05:34:36.352Z,76.60
2018-04-15T05:37:04.108Z,74.10
2018-04-15T05:39:31.561Z,74.00
2018-04-15T05:41:59.067Z,72.30
2018-04-15T05:44:26.517Z,73.90
2018-04-15T05:46:53.984Z,72.50
2018-04-15T05:49:21.646Z,73.50
2018-04-15T05:51:49.083Z,73.40
2018-04-15T05:54:16.526Z,74.20
2018-04-15T05:56:44.759Z,73.90
2018-04-15T05:59:12.354Z,73.90
2018-04-15T06:01:39.785Z,72.60
2018-04-15T06:04:07.253Z,71.30
2018-04-15T06:06:34.694Z,71.40
2018-04-15T06:09:02.133Z,70.60
2018-04-15T06:11:29.589Z,70.70
2018-04-15T06:13:57.099Z,71.00
2018-04-15T06:16:24.557Z,70.80
2018-04-15T06:18:52.018Z,70.50
2018-04-15T06:21:19.473Z,69.30
2018-04-15T06:23:47.141Z,69.70
2018-04-15T06:26:14.637Z,70.90
2018-04-15T06:28:42.181Z,71.70
2018-04-15T06:31:09.665Z,70.80
2018-04-15T06:33:37.156Z,71.80
2018-04-15T06:36:05.803Z,70.90
2018-04-15T06:38:33.434Z,70.80
2018-04-15T06:41:01.030Z,70.80
2018-04-15T06:43:28.617Z,71.40
2018-04-15T06:45:56.153Z,71.30
2018-04-15T06:48:23.693Z,70.50
2018-04-15T06:50:51.175Z,72.30
2018-04-15T06:53:18.677Z,70.70
2018-04-15T06:55:46.156Z,72.00
2018-04-15T06:58:13.645Z,71.70
2018-04-15T07:00:41.133Z,70.30
2018-04-15T07:03:08.642Z,71.20
2018-04-15T07:05:36.916Z,69.20
2018-04-15T07:08:05.162Z,68.90
2018-04-15T07:10:32.697Z,68.70
2018-04-15T07:13:00.181Z,69.00
2018-04-15T07:15:27.695Z,69.40
2018-04-15T07:17:56.119Z,67.20
2018-04-15T07:20:23.569Z,67.20
2018-04-15T07:22:51.008Z,68.30
2018-04-15T07:25:19.235Z,66.60
2018-04-15T07:27:46.690Z,66.60
2018-04-15T07:30:14.153Z,66.20
2018-04-15T07:32:41.594Z,66.30
2018-04-15T07:35:09.387Z,65.80
2018-04-15T07:37:36.860Z,66.60
2018-04-15T07:40:04.309Z,66.20
2018-04-15T07:42:31.757Z,65.40
2018-04-15T07:44:59.561Z,64.40
2018-04-15T07:47:27.013Z,64.60
2018-04-15T07:49:54.575Z,65.20
2018-04-15T07:52:22.013Z,64.00
2018-04-15T07:54:49.482Z,63.80
2018-04-15T07:57:16.934Z,63.00
2018-04-15T07:59:44.434Z,61.90
2018-04-15T08:02:11.890Z,61.70
2018-04-15T08:04:39.392Z,62.90
2018-04-15T08:07:06.851Z,62.50
2018-04-15T08:09:34.377Z,61.00
2018-04-15T08:12:02.718Z,60.80
2018-04-15T08:14:31.021Z,60.30
2018-04-15T08:16:58.470Z,60.30
2018-04-15T08:19:25.929Z,59.50
2018-04-15T08:21:54.133Z,59.00
2018-04-15T08:24:21.593Z,58.90
2018-04-15T08:26:49.073Z,59.20
2018-04-15T08:29:16.526Z,58.50
2018-04-15T08:31:43.994Z,58.40
2018-04-15T08:34:11.440Z,57.50
2018-04-15T08:36:38.893Z,57.50
2018-04-15T08:39:06.381Z,57.40
2018-04-15T08:41:33.945Z,55.90
2018-04-15T08:44:01.514Z,56.40
2018-04-15T08:46:28.966Z,57.50
2018-04-15T08:48:56.438Z,56.90
2018-04-15T08:51:23.898Z,56.60
2018-04-15T08:53:51.340Z,55.60
2018-04-15T08:56:19.113Z,55.10
2018-04-15T08:58:46.675Z,54.20
2018-04-15T09:01:14.097Z,54.80
2018-04-15T09:03:41.566Z,54.60
2018-04-15T09:06:09.781Z,53.70
2018-04-15T09:08:37.269Z,53.50
2018-04-15T09:11:05.135Z,53.70
2018-04-15T09:13:32.603Z,53.20
2018-04-15T09:16:00.050Z,52.80
2018-04-15T09:18:27.513Z,53.00
2018-04-15T09:20:54.986Z,53.20
2018-04-15T09:23:22.630Z,52.90
2018-04-15T09:25:50.649Z,53.00
2018-04-15T09:28:18.100Z,52.80
2018-04-15T09:30:51.242Z,52.10
2018-04-15T09:33:19.557Z,51.10
2018-04-15T09:35:47.117Z,51.00
2018-04-15T09:38:14.590Z,51.50
2018-04-15T09:40:42.050Z,51.20
2018-04-15T09:43:09.525Z,50.60
2018-04-15T09:45:36.969Z,50.30
2018-04-15T09:48:04.723Z,49.50
2018-04-15T09:50:32.205Z,49.50
2018-04-15T09:52:59.769Z,48.80
2018-04-15T09:55:27.196Z,48.80
2018-04-15T09:57:54.692Z,47.80
2018-04-15T10:00:22.126Z,47.50
2018-04-15T10:02:49.584Z,47.80
2018-04-15T10:05:17.042Z,47.40
2018-04-15T10:07:45.249Z,48.40
2018-04-15T10:10:12.734Z,48.40
2018-04-15T10:12:40.181Z,47.90
2018-04-15T10:15:07.645Z,48.50
2018-04-15T10:17:35.217Z,48.30
2018-04-15T10:20:02.673Z,48.50
2018-04-15T10:22:30.115Z,48.60
2018-04-15T10:24:57.609Z,49.20
2018-04-15T10:27:25.057Z,47.60
2018-04-15T10:29:52.505Z,48.70
2018-04-15T10:32:19.980Z,48.80
2018-04-15T10:34:48.026Z,49.10
2018-04-15T10:37:15.526Z,49.80
2018-04-15T10:39:42.992Z,49.70
2018-04-15T10:42:10.458Z,49.30
2018-04-15T10:44:37.917Z,49.30
2018-04-15T10:47:05.369Z,50.00
2018-04-15T10:49:32.829Z,50.80
2018-04-15T10:52:00.295Z,50.10
2018-04-15T10:54:27.756Z,50.70
2018-04-15T10:56:55.192Z,50.50
2018-04-15T10:59:22.652Z,50.80
2018-04-15T11:01:50.972Z,50.80
2018-04-15T11:04:18.426Z,50.90
2018-04-15T11:06:45.900Z,51.50
2018-04-15T11:09:13.356Z,50.40
2018-04-15T11:11:40.867Z,50.70
2018-04-15T11:14:08.341Z,50.50
2018-04-15T11:16:35.745Z,50.20
2018-04-15T11:19:03.220Z,51.00
2018-04-15T11:21:30.668Z,51.20
2018-04-15T11:23:58.133Z,51.70
2018-04-15T11:26:25.697Z,52.10
2018-04-15T11:28:53.294Z,52.30
2018-04-15T11:31:20.741Z,52.00
2018-04-15T11:33:48.197Z,52.30
2018-04-15T11:36:15.654Z,51.20
2018-04-15T11:38:43.106Z,52.30
2018-04-15T11:41:10.544Z,52.50
2018-04-15T11:43:38.017Z,51.70
2018-04-15T11:46:05.458Z,52.30
2018-04-15T11:48:32.910Z,52.80
2018-04-15T11:51:01.139Z,51.90
2018-04-15T11:53:28.598Z,51.80
2018-04-15T11:55:56.065Z,52.20
2018-04-15T11:58:23.522Z,51.90
2018-04-15T12:00:50.974Z,51.20
2018-04-15T12:03:18.445Z,50.20
2018-04-15T12:05:45.897Z,49.80
2018-04-15T12:08:13.365Z,50.90
2018-04-15T12:10:40.851Z,51.40
2018-04-15T12:13:08.309Z,50.50
2018-04-15T12:15:35.865Z,49.50
2018-04-15T12:18:03.437Z,50.30
2018-04-15T12:20:30.902Z,49.40
2018-04-15T12:22:58.365Z,49.70
2018-04-15T12:25:25.823Z,49.30
2018-04-15T12:27:53.389Z,50.20
2018-04-15T12:30:22.809Z,48.20
2018-04-15T12:32:50.491Z,49.50
2018-04-15T12:35:17.951Z,50.50
2018-04-15T12:37:45.389Z,50.20
2018-04-15T12:40:12.891Z,49.70
2018-04-15T12:42:40.414Z,49.80
2018-04-15T12:45:07.987Z,50.10
2018-04-15T12:47:35.453Z,50.30
2018-04-15T12:50:02.906Z,50.30
2018-04-15T12:52:30.369Z,50.30
2018-04-15T12:54:57.806Z,50.00
2018-04-15T12:57:25.296Z,50.00
2018-04-15T12:59:52.758Z,49.90
2018-04-15T13:02:20.222Z,49.30
2018-04-15T13:04:47.694Z,50.30
2018-04-15T13:07:15.961Z,49.70
2018-04-15T13:09:44.349Z,49.70
2018-04-15T13:12:11.917Z,49.10
2018-04-15T13:14:39.371Z,48.90
2018-04-15T13:17:06.838Z,49.00
2018-04-15T13:19:34.293Z,48.30
2018-04-15T13:22:01.738Z,48.10
2018-04-15T13:24:29.297Z,46.50
2018-04-15T13:26:56.791Z,47.60
2018-04-15T13:29:24.289Z,48.50
2018-04-15T13:31:52.561Z,47.30
2018-04-15T13:34:20.101Z,47.30
2018-04-15T13:36:47.601Z,47.50
2018-04-15T13:39:15.836Z,47.90
2018-04-15T13:41:43.288Z,47.60
2018-04-15T13:44:10.774Z,44.80
2018-04-15T13:46:38.328Z,46.70
2018-04-15T13:49:05.787Z,46.30
2018-04-15T13:51:33.244Z,46.20
2018-04-15T13:54:00.708Z,45.90
2018-04-15T13:56:28.284Z,45.80
2018-04-15T13:58:55.850Z,45.60
2018-04-15T14:01:23.324Z,46.10
2018-04-15T14:03:50.825Z,46.00
2018-04-15T14:06:19.022Z,46.10
2018-04-15T14:08:46.913Z,46.10
2018-04-15T14:11:14.376Z,45.00
2018-04-15T14:13:41.831Z,46.20
2018-04-15T14:16:09.285Z,46.10
2018-04-15T14:18:36.746Z,45.60
2018-04-15T14:21:04.451Z,46.80
2018-04-15T14:23:32.010Z,45.50
2018-04-15T14:25:59.480Z,46.10
2018-04-15T14:28:26.924Z,46.60
2018-04-15T14:30:54.370Z,46.80
2018-04-15T14:33:21.903Z,46.90
2018-04-15T14:35:50.189Z,46.90
2018-04-15T14:38:18.591Z,47.10
2018-04-15T14:40:46.069Z,47.00
2018-04-15T14:43:13.513Z,46.90
2018-04-15T14:45:40.979Z,47.20
2018-04-15T14:48:08.436Z,47.00
2018-04-15T14:50:35.909Z,47.10
2018-04-15T14:53:03.826Z,47.20
2018-04-15T14:55:31.273Z,47.00
2018-04-15T14:57:58.829Z,47.00
2018-04-15T15:00:26.373Z,47.10
2018-04-15T15:02:54.066Z,47.40
2018-04-15T15:05:21.579Z,46.60
2018-04-15T15:07:49.230Z,46.80
2018-04-15T15:10:16.770Z,47.20
2018-04-15T15:12:44.489Z,45.80
2018-04-15T15:15:12.711Z,46.90
2018-04-15T15:17:40.160Z,46.90
2018-04-15T15:20:07.621Z,46.30
2018-04-15T15:22:35.056Z,46.50
2018-04-15T15:25:02.528Z,45.80
2018-04-15T15:27:29.985Z,46.30
2018-04-15T15:29:57.430Z,46.70
2018-04-15T15:32:25.653Z,46.40
2018-04-15T15:34:53.124Z,46.40
2018-04-15T15:37:20.685Z,46.50
2018-04-15T15:39:48.133Z,46.70
2018-04-15T15:42:15.602Z,46.40
2018-04-15T15:44:43.090Z,46.40
2018-04-15T15:47:10.567Z,47.30
2018-04-15T15:49:38.112Z,45.90
2018-04-15T15:52:05.772Z,47.20
2018-04-15T15:54:33.214Z,47.90
2018-04-15T15:57:00.706Z,47.60
2018-04-15T15:59:28.152Z,47.90
2018-04-15T16:01:55.606Z,48.00
2018-04-15T16:04:23.162Z,48.00
2018-04-15T16:06:50.616Z,48.20
2018-04-15T16:09:18.194Z,49.00
2018-04-15T16:11:45.618Z,48.70
2018-04-15T16:14:13.917Z,48.80
2018-04-15T16:16:41.414Z,48.70
2018-04-15T16:19:08.889Z,48.90
2018-04-15T16:21:36.359Z,49.20
2018-04-15T16:24:03.827Z,49.10
2018-04-15T16:26:31.290Z,49.20
2018-04-15T16:28:59.377Z,49.20
2018-04-15T16:31:26.834Z,48.70
2018-04-15T16:33:54.373Z,49.40
2018-04-15T16:36:21.829Z,49.10
2018-04-15T16:38:49.292Z,49.70
2018-04-15T16:41:16.883Z,49.70
2018-04-15T16:43:44.407Z,50.20
2018-04-15T16:46:11.850Z,50.70
2018-04-15T16:48:39.349Z,51.20
2018-04-15T16:51:06.810Z,51.30
2018-04-15T16:53:34.365Z,51.40
2018-04-15T16:56:01.837Z,52.20
2018-04-15T16:58:29.288Z,52.00
2018-04-15T17:00:56.721Z,52.30
2018-04-15T17:03:24.936Z,52.40
2018-04-15T17:05:52.405Z,52.40
2018-04-15T17:08:19.846Z,52.10
2018-04-15T17:10:47.309Z,52.30
2018-04-15T17:13:14.745Z,52.40
2018-04-15T17:15:42.967Z,52.10
2018-04-15T17:18:10.959Z,52.00
2018-04-15T17:20:38.400Z,52.30
2018-04-15T17:23:05.855Z,52.50
2018-04-15T17:25:33.298Z,52.70
2018-04-15T17:28:01.666Z,53.00
2018-04-15T17:30:29.057Z,53.00
2018-04-15T17:32:56.525Z,52.40
2018-04-15T17:35:24.240Z,52.20
2018-04-15T17:37:51.698Z,52.60
2018-04-15T17:40:19.161Z,53.10
2018-04-15T17:42:48.109Z,52.50
2018-04-15T17:45:15.577Z,52.50
2018-04-15T17:47:43.087Z,52.60
2018-04-15T17:50:10.546Z,52.80
2018-04-15T17:52:38.078Z,53.00
2018-04-15T17:55:05.549Z,52.60
2018-04-15T17:57:32.990Z,52.50
2018-04-15T18:00:00.444Z,53.20
2018-04-15T18:02:27.955Z,53.20
2018-04-15T18:04:55.942Z,52.80
2018-04-15T18:07:23.409Z,53.10
2018-04-15T18:09:50.852Z,53.20
2018-04-15T18:12:18.287Z,53.10
2018-04-15T18:14:45.740Z,54.10
2018-04-15T18:17:13.320Z,54.10
2018-04-15T18:19:40.774Z,53.20
2018-04-15T18:22:08.240Z,53.80
2018-04-15T18:24:35.706Z,54.10
2018-04-15T18:27:03.150Z,53.70
2018-04-15T18:29:30.613Z,53.90
2018-04-15T18:31:58.089Z,54.00
2018-04-15T18:34:25.599Z,54.20
2018-04-15T18:36:53.142Z,54.40
2018-04-15T18:39:21.013Z,54.80
2018-04-15T18:41:48.480Z,54.80
2018-04-15T18:44:15.957Z,54.00
2018-04-15T18:46:43.481Z,54.30
2018-04-15T18:49:10.959Z,54.10
2018-04-15T18:51:38.482Z,54.20
2018-04-15T18:54:05.934Z,54.80
2018-04-15T18:56:34.232Z,54.80
2018-04-15T18:59:01.678Z,54.80
2018-04-15T19:01:29.177Z,54.60
2018-04-15T19:03:56.626Z,55.00
2018-04-15T19:06:24.085Z,55.20
2018-04-15T19:08:51.551Z,54.80
2018-04-15T19:11:18.989Z,55.10
2018-04-15T19:13:47.317Z,55.50
2018-04-15T19:16:14.745Z,55.50
2018-04-15T19:18:42.184Z,55.50
2018-04-15T19:21:10.593Z,55.50
2018-04-15T19:23:38.028Z,55.50
2018-04-15T19:26:06.246Z,54.70
2018-04-15T19:28:33.705Z,54.70
2018-04-15T19:31:01.195Z,55.40
2018-04-15T19:33:28.753Z,55.40
2018-04-15T19:35:56.224Z,55.30
2018-04-15T19:38:23.688Z,55.80
2018-04-15T19:40:51.113Z,55.30
2018-04-15T19:43:18.561Z,55.00
2018-04-15T19:45:46.028Z,55.30
2018-04-15T19:48:13.485Z,55.60
2018-04-15T19:50:41.721Z,55.90
2018-04-15T19:53:09.170Z,55.90
2018-04-15T19:55:36.613Z,55.60
2018-04-15T19:58:04.089Z,56.10
2018-04-15T20:00:31.533Z,56.60
2018-04-15T20:02:59.014Z,56.70
2018-04-15T20:05:26.641Z,56.40
2018-04-15T20:07:54.838Z,57.10
2018-04-15T20:10:22.326Z,57.10
2018-04-15T20:12:49.781Z,56.60
2018-04-15T20:15:17.244Z,56.90
2018-04-15T20:17:44.691Z,56.50
2018-04-15T20:20:12.254Z,57.10
2018-04-15T20:22:39.703Z,56.90
2018-04-15T20:25:07.200Z,57.30
2018-04-15T20:27:34.766Z,56.20
2018-04-15T20:30:02.206Z,56.70
2018-04-15T20:32:29.654Z,56.30
2018-04-15T20:34:57.121Z,56.80
2018-04-15T20:37:24.565Z,56.10
2018-04-15T20:39:53.022Z,56.20
2018-04-15T20:42:20.481Z,56.20
2018-04-15T20:44:47.930Z,56.40
2018-04-15T20:47:15.390Z,56.80
2018-04-15T20:49:42.852Z,57.00
2018-04-15T20:52:10.501Z,56.50
2018-04-15T20:54:37.980Z,57.10
2018-04-15T20:57:05.417Z,56.50
2018-04-15T20:59:33.006Z,56.70
2018-04-15T21:02:00.446Z,57.10
2018-04-15T21:04:28.010Z,57.00
2018-04-15T21:06:55.477Z,56.60
2018-04-15T21:09:22.921Z,57.00
2018-04-15T21:11:50.419Z,57.00
2018-04-15T21:14:18.598Z,57.60
2018-04-15T21:16:46.073Z,57.50
2018-04-15T21:19:13.550Z,57.40
2018-04-15T21:21:41.017Z,57.30
2018-04-15T21:24:08.548Z,57.30
2018-04-15T21:26:35.999Z,56.80
2018-04-15T21:29:03.768Z,57.30
2018-04-15T21:31:31.256Z,57.20
2018-04-15T21:33:58.721Z,57.30
2018-04-15T21:36:26.357Z,57.30
2018-04-15T21:38:53.837Z,57.50
2018-04-15T21:41:21.316Z,57.30
2018-04-15T21:43:48.773Z,57.50
2018-04-15T21:46:16.277Z,57.60
2018-04-15T21:48:44.622Z,57.20
2018-04-15T21:51:12.057Z,57.20
2018-04-15T21:53:39.610Z,57.40
2018-04-15T21:56:07.081Z,57.80
2018-04-15T21:58:34.558Z,57.70
2018-04-15T22:01:02.033Z,58.20
2018-04-15T22:03:29.468Z,58.80
2018-04-15T22:05:56.926Z,59.00
2018-04-15T22:08:24.411Z,58.60
2018-04-15T22:10:51.840Z,58.70
2018-04-15T22:13:19.329Z,59.40
2018-04-15T22:15:46.788Z,60.40
2018-04-15T22:18:14.293Z,60.70
2018-04-15T22:20:41.766Z,60.80
2018-04-15T22:23:09.996Z,61.90
2018-04-15T22:25:37.657Z,61.30
2018-04-15T22:28:05.123Z,60.50
2018-04-15T22:30:32.579Z,60.90
2018-04-15T22:33:00.017Z,61.50
2018-04-15T22:35:27.459Z,61.70
2018-04-15T22:37:54.933Z,61.30
2018-04-15T22:40:23.145Z,61.80
2018-04-15T22:42:50.620Z,61.70
2018-04-15T22:45:18.102Z,62.60
2018-04-15T22:47:51.261Z,62.90
2018-04-15T22:50:18.719Z,62.20
2018-04-15T22:52:46.178Z,64.00
2018-04-15T22:55:13.732Z,63.40
2018-04-15T22:57:41.997Z,64.00
2018-04-15T23:00:10.224Z,64.30
2018-04-15T23:02:37.670Z,64.30
2018-04-15T23:05:05.133Z,64.50
2018-04-15T23:07:33.082Z,63.90
2018-04-15T23:10:00.516Z,65.50
2018-04-15T23:12:27.969Z,65.00
2018-04-15T23:14:55.513Z,65.00
2018-04-15T23:17:22.973Z,65.30
2018-04-15T23:19:50.498Z,66.00
2018-04-15T23:22:18.713Z,67.00
2018-04-15T23:24:46.163Z,67.00
2018-04-15T23:27:13.646Z,65.10
2018-04-15T23:29:41.229Z,65.60
2018-04-15T23:32:08.694Z,65.10
2018-04-15T23:34:36.160Z,66.20
2018-04-15T23:37:03.589Z,65.50
2018-04-15T23:39:31.065Z,66.50
2018-04-15T23:41:58.501Z,66.50
2018-04-15T23:44:25.989Z,67.70
2018-04-15T23:46:53.457Z,66.30
2018-04-15T23:49:20.914Z,67.40
2018-04-15T23:51:48.368Z,66.30
2018-04-15T23:54:15.830Z,68.00
2018-04-15T23:56:49.015Z,68.70
2018-04-15T23:59:16.601Z,67.30
